createdAt,value
2018-03-24T00:00:42.178Z,33.30
2018-03-24T00:03:11.577Z,36.03
2018-03-24T00:05:41.343Z,34.53
2018-03-24T00:08:10.304Z,30.93
2018-03-24T00:10:40.007Z,32.47
2018-03-24T00:13:09.807Z,34.20
2018-03-24T00:15:39.561Z,31.90
2018-03-24T00:18:08.504Z,31.17
2018-03-24T00:20:38.245Z,32.33
2018-03-24T00:23:07.258Z,29.43
2018-03-24T00:25:36.194Z,32.60
2018-03-24T00:28:05.921Z,30.17
2018-03-24T00:30:35.794Z,30.37
2018-03-24T00:33:04.742Z,30.63
2018-03-24T00:35:34.165Z,30.83
2018-03-24T00:38:03.512Z,30.40
2018-03-24T00:40:33.259Z,31.93
2018-03-24T00:43:02.223Z,30.97
2018-03-24T00:45:31.587Z,29.17
2018-03-24T00:48:00.543Z,29.97
2018-03-24T00:50:29.546Z,31.43
2018-03-24T00:52:58.486Z,33.80
2018-03-24T00:55:27.469Z,34.33
2018-03-24T00:57:56.414Z,34.07
2018-03-24T01:00:25.442Z,32.47
2018-03-24T01:02:54.391Z,39.83
2018-03-24T01:05:23.827Z,39.67
2018-03-24T01:07:53.743Z,44.90
2018-03-24T01:10:23.474Z,42.50
2018-03-24T01:12:52.504Z,40.27
2018-03-24T01:15:21.613Z,36.03
2018-03-24T01:17:50.601Z,34.43
2018-03-24T01:20:20.311Z,34.23
2018-03-24T01:22:49.668Z,33.83
2018-03-24T01:25:19.028Z,30.80
2018-03-24T01:27:48.410Z,32.90
2018-03-24T01:30:17.768Z,33.30
2018-03-24T01:32:46.750Z,32.80
2018-03-24T01:35:16.480Z,28.90
2018-03-24T01:37:46.231Z,32.60
2018-03-24T01:40:15.172Z,32.03
2018-03-24T01:42:44.947Z,30.80
2018-03-24T01:45:13.913Z,31.60
2018-03-24T01:47:43.327Z,33.67
2018-03-24T01:50:12.359Z,30.23
2018-03-24T01:52:41.301Z,32.30
2018-03-24T01:55:10.751Z,30.77
2018-03-24T01:57:40.097Z,30.60
2018-03-24T02:00:09.115Z,29.40
2018-03-24T02:02:38.462Z,31.50
2018-03-24T02:05:07.448Z,31.23
2018-03-24T02:07:36.401Z,28.97
2018-03-24T02:10:06.229Z,29.90
2018-03-24T02:12:35.673Z,28.67
2018-03-24T02:15:04.648Z,30.20
2018-03-24T02:17:33.595Z,29.90
2018-03-24T02:20:02.945Z,30.30
2018-03-24T02:22:31.892Z,28.17
2018-03-24T02:25:15.921Z,30.57
2018-03-24T02:27:45.668Z,28.50
2018-03-24T02:30:15.022Z,28.10
2018-03-24T02:32:44.772Z,28.33
2018-03-24T02:35:13.707Z,27.90
2018-03-24T02:37:43.417Z,29.33
2018-03-24T02:40:13.171Z,30.07
2018-03-24T02:42:42.169Z,28.53
2018-03-24T02:45:11.894Z,29.33
2018-03-24T02:47:41.636Z,29.40
2018-03-24T02:50:10.633Z,27.73
2018-03-24T02:52:40.406Z,29.77
2018-03-24T02:55:09.357Z,29.47
2018-03-24T02:57:38.328Z,29.67
2018-03-24T03:00:08.054Z,29.70
2018-03-24T03:02:37.028Z,29.30
2018-03-24T03:05:06.442Z,29.33
2018-03-24T03:07:36.195Z,27.37
2018-03-24T03:10:05.520Z,28.93
2018-03-24T03:12:34.510Z,29.60
2018-03-24T03:15:03.661Z,29.17
2018-03-24T03:17:32.643Z,28.10
2018-03-24T03:20:02.362Z,30.70
2018-03-24T03:22:31.336Z,30.40
2018-03-24T03:25:00.335Z,30.10
2018-03-24T03:27:29.271Z,28.37
2018-03-24T03:29:58.650Z,30.20
2018-03-24T03:32:28.446Z,27.97
2018-03-24T03:34:57.524Z,27.83
2018-03-24T03:37:26.509Z,31.20
2018-03-24T03:39:56.248Z,28.20
2018-03-24T03:42:25.589Z,31.00
2018-03-24T03:44:54.546Z,30.17
2018-03-24T03:47:23.572Z,29.77
2018-03-24T03:49:52.527Z,29.50
2018-03-24T03:52:21.523Z,32.40
2018-03-24T03:54:50.887Z,29.63
2018-03-24T03:57:20.604Z,26.10
2018-03-24T03:59:50.406Z,29.27
2018-03-24T04:02:20.128Z,30.13
2018-03-24T04:04:49.888Z,32.03
2018-03-24T04:07:19.652Z,29.00
2018-03-24T04:09:49.480Z,31.30
2018-03-24T04:12:18.422Z,31.87
2018-03-24T04:14:47.932Z,32.23
2018-03-24T04:17:17.725Z,29.43
2018-03-24T04:19:46.696Z,31.80
2018-03-24T04:22:15.653Z,30.67
2018-03-24T04:24:44.995Z,31.13
2018-03-24T04:27:14.368Z,30.20
2018-03-24T04:29:43.750Z,32.30
2018-03-24T04:32:13.525Z,30.37
2018-03-24T04:34:42.521Z,30.77
2018-03-24T04:37:11.946Z,29.07
2018-03-24T04:39:41.671Z,28.57
2018-03-24T04:42:11.045Z,31.33
2018-03-24T04:44:40.422Z,30.17
2018-03-24T04:47:09.384Z,28.87
2018-03-24T04:49:39.131Z,30.23
2018-03-24T04:52:08.520Z,28.27
2018-03-24T04:54:37.557Z,29.70
2018-03-24T04:57:07.288Z,31.33
2018-03-24T04:59:36.667Z,29.90
2018-03-24T05:02:06.030Z,30.70
2018-03-24T05:04:35.404Z,29.27
2018-03-24T05:07:04.354Z,31.20
2018-03-24T05:09:33.802Z,28.93
2018-03-24T05:12:02.746Z,28.97
2018-03-24T05:14:31.741Z,30.03
2018-03-24T05:17:00.683Z,32.43
2018-03-24T05:19:30.063Z,27.70
2018-03-24T05:21:59.417Z,29.17
2018-03-24T05:24:28.397Z,29.43
2018-03-24T05:26:57.350Z,28.60
2018-03-24T05:29:26.325Z,28.50
2018-03-24T05:31:55.717Z,30.30
2018-03-24T05:34:25.444Z,30.80
2018-03-24T05:36:55.190Z,29.80
2018-03-24T05:39:24.521Z,30.77
2018-03-24T05:41:53.634Z,28.87
2018-03-24T05:44:23.338Z,30.57
2018-03-24T05:46:52.340Z,30.40
2018-03-24T05:49:22.099Z,29.47
2018-03-24T05:51:51.097Z,27.93
2018-03-24T05:54:20.468Z,28.30
2018-03-24T05:56:50.435Z,29.23
2018-03-24T05:59:19.787Z,28.60
2018-03-24T06:01:48.757Z,30.27
2018-03-24T06:04:18.577Z,29.00
2018-03-24T06:06:47.585Z,28.70
2018-03-24T06:09:16.564Z,28.10
2018-03-24T06:11:45.524Z,27.40
2018-03-24T06:14:14.482Z,30.07
2018-03-24T06:16:43.624Z,30.30
2018-03-24T06:19:13.396Z,31.47
2018-03-24T06:21:42.351Z,29.77
2018-03-24T06:24:11.333Z,30.67
2018-03-24T06:26:41.159Z,29.33
2018-03-24T06:29:10.527Z,28.97
2018-03-24T06:45:01.255Z,27.77
2018-03-24T06:47:30.213Z,28.07
2018-03-24T06:49:59.923Z,28.40
2018-03-24T06:52:29.981Z,29.13
2018-03-24T06:54:58.948Z,30.87
2018-03-24T06:57:28.745Z,31.27
2018-03-24T06:59:58.206Z,28.57
2018-03-24T07:02:27.167Z,27.40
2018-03-24T07:04:56.555Z,30.07
2018-03-24T07:07:25.565Z,27.90
2018-03-24T07:09:54.522Z,28.53
2018-03-24T07:12:24.416Z,26.63
2018-03-24T07:14:53.402Z,29.40
2018-03-24T07:17:22.770Z,27.03
2018-03-24T07:19:53.669Z,26.87
2018-03-24T07:22:23.405Z,25.90
2018-03-24T07:24:52.825Z,25.67
2018-03-24T07:27:22.620Z,24.83
2018-03-24T07:29:51.621Z,23.70
2018-03-24T07:32:20.802Z,22.63
2018-03-24T07:34:50.536Z,22.87
2018-03-24T07:37:19.598Z,23.07
2018-03-24T07:39:48.582Z,22.43
2018-03-24T07:42:17.643Z,21.63
2018-03-24T07:44:49.417Z,23.30
2018-03-24T07:47:19.478Z,21.73
2018-03-24T07:49:48.795Z,20.40
2018-03-24T07:52:20.332Z,19.50
2018-03-24T07:54:50.316Z,18.13
2018-03-24T07:57:19.814Z,17.60
2018-03-24T07:59:49.261Z,20.00
2018-03-24T08:02:18.976Z,19.03
2018-03-24T08:04:48.727Z,18.97
2018-03-24T08:07:18.190Z,19.20
2018-03-24T08:09:48.799Z,17.40
2018-03-24T08:12:18.556Z,15.67
2018-03-24T08:14:48.219Z,17.73
2018-03-24T08:17:19.580Z,18.20
2018-03-24T08:19:49.200Z,19.47
2018-03-24T08:22:19.668Z,15.80
2018-03-24T08:24:48.705Z,18.63
2018-03-24T08:27:18.516Z,15.73
2018-03-24T08:29:48.399Z,15.53
2018-03-24T08:32:17.626Z,15.07
2018-03-24T08:34:47.283Z,16.70
2018-03-24T08:37:17.337Z,17.57
2018-03-24T08:39:49.787Z,17.57
2018-03-24T08:42:18.889Z,17.57
2018-03-24T08:44:49.419Z,15.60
2018-03-24T08:47:18.846Z,16.30
2018-03-24T08:49:50.477Z,16.23
2018-03-24T08:52:19.438Z,17.40
2018-03-24T08:54:48.497Z,15.80
2018-03-24T09:03:16.066Z,17.50
2018-03-24T09:05:44.802Z,16.70
2018-03-24T09:08:14.925Z,18.37
2018-03-24T09:10:44.660Z,18.50
2018-03-24T09:13:13.627Z,18.93
2018-03-24T09:15:43.401Z,19.50
2018-03-24T09:18:12.785Z,18.60
2018-03-24T09:20:43.274Z,19.63
2018-03-24T09:23:12.251Z,18.00
2018-03-24T09:25:41.653Z,19.30
2018-03-24T09:28:10.617Z,18.60
2018-03-24T09:30:40.377Z,19.10
2018-03-24T09:33:09.414Z,19.70
2018-03-24T09:35:38.847Z,18.60
2018-03-24T09:38:08.623Z,19.67
2018-03-24T09:40:38.452Z,18.43
2018-03-24T09:43:08.218Z,18.20
2018-03-24T09:45:37.570Z,18.17
2018-03-24T09:48:06.534Z,19.13
2018-03-24T09:50:36.504Z,19.97
2018-03-24T09:53:05.853Z,18.20
2018-03-24T09:55:35.600Z,17.97
2018-03-24T09:58:05.329Z,16.77
2018-03-24T10:00:34.672Z,17.80
2018-03-24T10:03:03.725Z,15.77
2018-03-24T10:05:32.695Z,16.77
2018-03-24T10:08:02.403Z,16.57
2018-03-24T10:10:34.954Z,14.47
2018-03-24T10:13:04.669Z,15.80
2018-03-24T10:15:34.475Z,16.57
2018-03-24T10:18:03.844Z,14.93
2018-03-24T10:20:43.257Z,15.20
2018-03-24T10:23:28.610Z,14.60
2018-03-24T10:25:58.011Z,15.10
2018-03-24T10:28:27.811Z,16.17
2018-03-24T10:30:57.527Z,16.50
2018-03-24T10:33:27.297Z,15.67
2018-03-24T10:35:58.372Z,15.07
2018-03-24T10:38:28.422Z,15.90
2018-03-24T10:40:58.621Z,15.60
2018-03-24T10:43:33.908Z,15.03
2018-03-24T10:46:02.926Z,16.70
2018-03-24T10:48:31.910Z,17.63
2018-03-24T10:51:01.670Z,16.83
2018-03-24T10:53:30.673Z,16.37
2018-03-24T10:56:00.572Z,13.80
2018-03-24T10:58:29.745Z,15.27
2018-03-24T11:01:03.468Z,15.77
2018-03-24T11:03:32.470Z,15.83
2018-03-24T11:06:03.628Z,16.07
2018-03-24T11:08:33.468Z,16.03
2018-03-24T11:11:02.500Z,14.63
2018-03-24T11:13:31.547Z,16.03
2018-03-24T11:16:00.515Z,15.63
2018-03-24T11:18:29.500Z,15.80
2018-03-24T11:20:58.489Z,15.30
2018-03-24T11:23:27.567Z,17.70
2018-03-24T11:25:56.937Z,18.03
2018-03-24T11:28:26.629Z,16.60
2018-03-24T11:30:55.616Z,17.20
2018-03-24T11:33:24.711Z,16.43
2018-03-24T11:35:53.675Z,18.13
2018-03-24T11:38:23.557Z,16.60
2018-03-24T11:40:52.547Z,15.03
2018-03-24T11:43:21.490Z,14.87
2018-03-24T11:45:50.945Z,14.83
2018-03-24T11:48:20.667Z,14.77
2018-03-24T11:50:50.484Z,16.10
2018-03-24T12:06:42.334Z,14.70
2018-03-24T12:09:12.592Z,16.00
2018-03-24T12:11:42.061Z,14.83
2018-03-24T12:14:11.926Z,15.07
2018-03-24T12:16:41.280Z,14.90
2018-03-24T12:19:12.840Z,15.33
2018-03-24T12:21:41.822Z,13.97
2018-03-24T12:24:12.157Z,13.67
2018-03-24T12:26:41.560Z,11.97
2018-03-24T12:29:11.402Z,13.23
2018-03-24T12:31:40.768Z,13.47
2018-03-24T12:34:10.483Z,13.10
2018-03-24T12:36:39.473Z,13.57
2018-03-24T12:39:09.522Z,13.17
2018-03-24T12:41:39.593Z,13.47
2018-03-24T12:44:09.435Z,14.50
2018-03-24T12:46:38.446Z,13.60
2018-03-24T12:49:09.455Z,12.80
2018-03-24T12:51:39.797Z,13.50
2018-03-24T12:54:10.492Z,13.60
2018-03-24T12:56:40.224Z,11.50
2018-03-24T12:59:11.193Z,13.00
2018-03-24T13:01:41.923Z,12.50
2018-03-24T13:04:13.902Z,12.30
2018-03-24T13:06:44.779Z,12.27
2018-03-24T13:09:14.966Z,10.80
2018-03-24T13:11:44.956Z,11.17
2018-03-24T13:14:14.725Z,11.63
2018-03-24T13:16:44.631Z,11.27
2018-03-24T13:19:14.585Z,10.87
2018-03-24T13:21:44.655Z,12.07
2018-03-24T13:24:13.787Z,11.87
2018-03-24T13:26:43.691Z,10.77
2018-03-24T13:29:12.815Z,10.70
2018-03-24T13:31:44.047Z,10.80
2018-03-24T13:34:13.640Z,11.37
2018-03-24T13:36:44.154Z,10.90
2018-03-24T13:39:14.743Z,9.20
2018-03-24T13:41:44.493Z,9.30
2018-03-24T13:44:13.519Z,9.70
2018-03-24T13:46:43.237Z,13.50
2018-03-24T13:49:12.578Z,16.03
2018-03-24T13:51:42.329Z,16.60
2018-03-24T13:54:11.695Z,15.70
2018-03-24T13:56:40.706Z,15.30
2018-03-24T13:59:09.731Z,16.33
2018-03-24T14:01:39.479Z,16.30
2018-03-24T14:04:08.452Z,16.17
2018-03-24T14:06:37.408Z,18.03
2018-03-24T14:09:06.378Z,15.90
2018-03-24T14:11:35.453Z,17.30
2018-03-24T14:14:04.837Z,17.53
2018-03-24T14:16:33.909Z,17.07
2018-03-24T14:19:03.608Z,17.80
2018-03-24T14:21:34.056Z,14.90
2018-03-24T14:24:03.387Z,16.50
2018-03-24T14:26:32.394Z,15.83
2018-03-24T14:29:01.788Z,14.40
2018-03-24T14:31:32.333Z,13.70
2018-03-24T14:34:01.691Z,15.03
2018-03-24T14:36:31.455Z,15.70
2018-03-24T14:39:00.805Z,13.47
2018-03-24T14:41:30.597Z,13.30
2018-03-24T14:44:00.329Z,13.30
2018-03-24T14:46:29.376Z,13.17
2018-03-24T14:49:00.025Z,13.90
2018-03-24T14:51:29.456Z,12.33
2018-03-24T14:53:58.433Z,12.53
2018-03-24T14:56:27.479Z,13.60
2018-03-24T14:58:56.458Z,13.27
2018-03-24T15:01:25.853Z,13.80
2018-03-24T15:03:55.669Z,13.90
2018-03-24T15:06:24.608Z,14.17
2018-03-24T15:08:54.371Z,14.20
2018-03-24T15:11:23.343Z,14.60
2018-03-24T15:13:53.470Z,14.30
2018-03-24T15:16:22.440Z,15.03
2018-03-24T15:18:52.196Z,15.57
2018-03-24T15:21:21.611Z,14.87
2018-03-24T15:23:51.112Z,16.20
2018-03-24T15:26:20.229Z,14.60
2018-03-24T15:29:01.533Z,14.40
2018-03-24T15:31:42.903Z,14.67
2018-03-24T15:34:24.458Z,15.00
2018-03-24T15:36:53.414Z,15.57
2018-03-24T15:39:23.718Z,16.20
2018-03-24T15:41:53.064Z,15.97
2018-03-24T15:44:22.828Z,16.43
2018-03-24T15:46:53.137Z,15.00
2018-03-24T15:49:22.909Z,15.30
2018-03-24T15:51:52.662Z,16.70
2018-03-24T15:54:22.093Z,17.70
2018-03-24T15:56:52.055Z,16.73
2018-03-24T15:59:22.095Z,17.33
2018-03-24T16:01:52.370Z,15.60
2018-03-24T16:04:24.574Z,17.07
2018-03-24T16:06:53.663Z,16.80
2018-03-24T16:09:23.491Z,18.87
2018-03-24T16:11:52.933Z,16.27
2018-03-24T16:14:22.766Z,16.50
2018-03-24T16:16:52.637Z,15.87
2018-03-24T16:19:22.868Z,16.10
2018-03-24T16:21:54.021Z,16.33
2018-03-24T16:24:23.062Z,17.23
2018-03-24T16:26:54.975Z,16.40
2018-03-24T16:29:24.454Z,16.50
2018-03-24T16:31:56.313Z,16.03
2018-03-24T16:34:25.902Z,17.43
2018-03-24T16:36:55.938Z,17.10
2018-03-24T16:39:26.289Z,17.67
2018-03-24T16:41:56.104Z,18.00
2018-03-24T16:44:26.565Z,17.53
2018-03-24T16:46:56.560Z,15.53
2018-03-24T16:49:26.937Z,17.90
2018-03-24T16:51:57.367Z,18.67
2018-03-24T16:54:27.311Z,19.20
2018-03-24T16:56:57.923Z,18.50
2018-03-24T16:59:28.740Z,18.10
2018-03-24T17:02:00.255Z,19.37
2018-03-24T17:04:29.700Z,19.13
2018-03-24T17:06:58.751Z,18.47
2018-03-24T17:09:28.538Z,18.23
2018-03-24T17:11:59.484Z,17.80
2018-03-24T17:14:30.201Z,19.40
2018-03-24T17:16:59.814Z,20.43
2018-03-24T17:19:30.822Z,17.73
2018-03-24T17:22:00.601Z,17.13
2018-03-24T17:24:31.321Z,17.60
2018-03-24T17:27:01.133Z,17.53
2018-03-24T17:29:31.844Z,16.00
2018-03-24T17:32:00.836Z,20.67
2018-03-24T17:34:31.508Z,18.50
2018-03-24T17:37:01.374Z,20.07
2018-03-24T17:39:33.025Z,18.53
2018-03-24T17:42:03.287Z,16.50
2018-03-24T17:44:32.829Z,19.50
2018-03-24T17:47:02.481Z,18.07
2018-03-24T17:49:33.315Z,19.30
2018-03-24T17:52:02.299Z,17.70
2018-03-24T17:54:31.779Z,17.23
2018-03-24T17:57:01.542Z,18.20
2018-03-24T17:59:30.940Z,17.27
2018-03-24T18:02:00.664Z,19.07
2018-03-24T18:04:29.780Z,20.27
2018-03-24T18:06:59.516Z,21.57
2018-03-24T18:09:28.996Z,19.97
2018-03-24T18:11:58.770Z,22.90
2018-03-24T18:14:27.761Z,21.90
2018-03-24T18:16:56.811Z,21.70
2018-03-24T18:19:26.557Z,18.97
2018-03-24T18:21:55.982Z,20.20
2018-03-24T18:24:25.536Z,18.57
2018-03-24T18:26:55.253Z,18.33
2018-03-24T18:29:24.320Z,17.97
2018-03-24T18:31:53.677Z,19.33
2018-03-24T18:34:22.691Z,19.33
2018-03-24T18:36:51.672Z,21.23
2018-03-24T18:39:21.783Z,19.90
2018-03-24T18:41:50.778Z,19.63
2018-03-24T18:44:21.290Z,22.00
2018-03-24T18:46:50.346Z,20.40
2018-03-24T18:49:20.812Z,18.50
2018-03-24T18:51:50.643Z,19.60
2018-03-24T18:54:20.481Z,18.27
2018-03-24T18:56:49.463Z,18.20
2018-03-24T18:59:18.466Z,18.83
2018-03-24T19:01:47.519Z,19.37
2018-03-24T19:04:18.704Z,18.30
2018-03-24T19:06:49.178Z,17.87
2018-03-24T19:09:18.986Z,17.23
2018-03-24T19:11:48.056Z,15.53
2018-03-24T19:14:17.496Z,16.90
2018-03-24T19:16:46.516Z,16.73
2018-03-24T19:19:15.517Z,16.67
2018-03-24T19:21:45.031Z,16.30
2018-03-24T19:24:14.764Z,15.57
2018-03-24T19:26:43.759Z,16.40
2018-03-24T19:29:12.847Z,16.50
2018-03-24T19:31:42.798Z,17.10
2018-03-24T19:34:12.591Z,18.07
2018-03-24T19:36:41.664Z,17.20
2018-03-24T19:39:11.065Z,15.93
2018-03-24T19:41:40.452Z,16.60
2018-03-24T19:44:09.856Z,16.37
2018-03-24T19:46:39.650Z,15.87
2018-03-24T19:49:09.786Z,15.20
2018-03-24T19:51:39.523Z,16.10
2018-03-24T19:54:09.306Z,15.63
2018-03-24T19:56:39.138Z,16.00
2018-03-24T19:59:08.934Z,15.27
2018-03-24T20:01:38.711Z,15.27
2018-03-24T20:04:07.732Z,17.13
2018-03-24T20:06:37.530Z,16.80
2018-03-24T20:09:07.602Z,16.70
2018-03-24T20:11:36.656Z,15.90
2018-03-24T20:14:06.435Z,16.30
2018-03-24T20:16:35.399Z,17.10
2018-03-24T20:19:04.376Z,20.50
2018-03-24T20:21:34.185Z,20.57
2018-03-24T20:24:04.469Z,19.00
2018-03-24T20:26:33.684Z,18.57
2018-03-24T20:29:03.164Z,17.20
2018-03-24T20:31:32.195Z,17.70
2018-03-24T20:34:01.570Z,18.07
2018-03-24T20:36:31.363Z,18.23
2018-03-24T20:39:00.407Z,16.97
2018-03-24T20:41:29.905Z,17.20
2018-03-24T20:43:59.732Z,17.77
2018-03-24T20:46:28.725Z,17.63
2018-03-24T20:48:57.716Z,18.03
2018-03-24T20:51:26.744Z,19.57
2018-03-24T20:53:55.761Z,18.87
2018-03-24T20:56:24.729Z,18.43
2018-03-24T20:58:53.770Z,17.87
2018-03-24T21:01:23.517Z,19.20
2018-03-24T21:03:52.566Z,17.00
2018-03-24T21:06:22.330Z,18.40
2018-03-24T21:08:52.148Z,17.80
2018-03-24T21:11:21.630Z,17.43
2018-03-24T21:13:50.588Z,18.07
2018-03-24T21:16:19.999Z,15.37
2018-03-24T21:18:49.408Z,16.57
2018-03-24T21:21:19.231Z,16.00
2018-03-24T21:23:48.650Z,16.60
2018-03-24T21:26:17.721Z,20.53
2018-03-24T21:28:46.725Z,22.33
2018-03-24T21:31:16.492Z,20.27
2018-03-24T21:33:45.901Z,22.30
2018-03-24T21:36:15.698Z,22.67
2018-03-24T21:38:44.842Z,20.00
2018-03-24T21:41:14.195Z,23.10
2018-03-24T21:43:44.000Z,21.33
2018-03-24T21:46:15.267Z,22.07
2018-03-24T21:48:44.277Z,21.13
2018-03-24T21:51:13.659Z,21.00
2018-03-24T21:53:43.418Z,20.97
2018-03-24T21:56:12.408Z,21.27
2018-03-24T21:58:41.848Z,22.37
2018-03-24T22:01:12.332Z,19.97
2018-03-24T22:03:42.452Z,19.07
2018-03-24T22:06:11.466Z,19.20
2018-03-24T22:08:40.511Z,17.23
2018-03-24T22:11:09.583Z,16.40
2018-03-24T22:13:38.669Z,16.80
2018-03-24T22:16:08.070Z,17.90
2018-03-24T22:18:38.414Z,19.50
2018-03-24T22:21:07.386Z,19.03
2018-03-24T22:23:36.361Z,17.10
2018-03-24T22:26:06.285Z,18.53
2018-03-24T22:28:35.242Z,18.20
2018-03-24T22:31:04.573Z,17.37
2018-03-24T22:33:33.971Z,17.93
2018-03-24T22:36:03.718Z,18.30
2018-03-24T22:38:33.461Z,16.93
2018-03-24T22:41:02.434Z,17.90
2018-03-24T22:43:31.772Z,17.90
2018-03-24T22:46:03.316Z,17.50
2018-03-24T22:48:33.406Z,17.77
2018-03-24T22:51:02.376Z,19.40
2018-03-24T22:53:31.745Z,18.37
2018-03-24T22:56:00.713Z,18.23
2018-03-24T22:58:29.806Z,18.50
2018-03-24T23:00:59.513Z,17.77
2018-03-24T23:03:28.505Z,16.13
2018-03-24T23:05:57.447Z,20.87
2018-03-24T23:08:26.410Z,22.67
2018-03-24T23:10:55.858Z,22.90
2018-03-24T23:13:25.207Z,21.93
2018-03-24T23:15:54.946Z,22.00
2018-03-24T23:18:23.892Z,16.10
2018-03-24T23:20:53.699Z,15.97
2018-03-24T23:23:22.651Z,17.87
2018-03-24T23:25:52.007Z,15.60
2018-03-24T23:28:21.353Z,17.30
2018-03-24T23:30:51.111Z,16.93
2018-03-24T23:33:20.457Z,16.37
2018-03-24T23:35:49.441Z,17.10
2018-03-24T23:38:18.482Z,17.00
2018-03-24T23:40:48.195Z,18.20
2018-03-24T23:43:17.245Z,17.43
2018-03-24T23:45:47.013Z,16.93
2018-03-24T23:48:15.997Z,17.80
2018-03-24T23:50:46.085Z,17.53
2018-03-24T23:53:15.853Z,16.20
2018-03-24T23:55:45.598Z,16.80
2018-03-24T23:58:15.324Z,17.40
